Terminal Aerodrome Forecast
Issued by NWS Austin/San Antonio, TX

Current Version | Previous Version | Text Only | Print | Product List | Glossary On
Versions: 1 2 3 4 5 6 7 8 9 10 11 12 13 14 15 16
273
FTUS44 KEWX 181231 AAA
TAFAUS
TAF AMD
KAUS 181231Z 1813/1918 19005KT P6SM SCT020 SCT250
     FM181500 18012KT P6SM SCT040
     FM190100 16013KT P6SM FEW250=

USA.gov is the U.S. government's official web portal to all federal, state and local government web resources and services.